^^
Saratoga-Weather Station Historical Data
Daily Summary for January 19, 2020 Units:  Metric    English   Both
Daily Weekly Monthly Yearly Custom
  High: Low: Average:
Temperature: 7.7 °C 4.6 °C 6.1 °C
Dew Point: 5.1 °C 0.4 °C 3 °C
Humidity: 92% 61% 81%
Wind Speed: 27.4km/h 0km/h 7.9km/h
Wind Gust: 51.5km/h - -
Wind- - WSW
Pressure: 1024.4 hPa 1016.9 hPa -
Precipitation: 6.9 mm    
Historical Graphs
 
 
Tabular Data for January 19, 2020
Time Temperature Dew Point Pressure Wind Wind Speed Wind Gust Humidity Rainfall Rate (Hourly) solar
00:04 6.2 °C 4.2 °C 1021.0 hPa North 3.2 km/h 4.8 km/h 87% 0.0 mm 0 W/m2
00:09 6.3 °C 4.3 °C 1020.7 hPa West 1.4 km/h 9.7 km/h 87% 0.0 mm 0 W/m2
00:14 6.3 °C 4.3 °C 1020.7 hPa NE 1.4 km/h 4.8 km/h 87% 0.0 mm 0 W/m2
00:19 6.4 °C 4.4 °C 1020.3 hPa West 3.2 km/h 9.7 km/h 87% 0.0 mm 0 W/m2
00:24 6.4 °C 4.4 °C 1020.7 hPa North 3.2 km/h 14.5 km/h 87% 0.0 mm 0 W/m2
00:29 6.5 °C 4.5 °C 1020.7 hPa NNW 6.4 km/h 11.3 km/h 87% 0.0 mm 0 W/m2
00:34 6.6 °C 4.4 °C 1020.3 hPa Calm   14.5 km/h 86% 0.0 mm 0 W/m2
00:39 6.7 °C 4.5 °C 1020.3 hPa NNW 3.2 km/h 6.4 km/h 86% 0.0 mm 0 W/m2
00:44 6.7 °C 4.5 °C 1020.3 hPa SSW 4.7 km/h 16.1 km/h 86% 0.0 mm 0 W/m2
00:49 6.7 °C 4.5 °C 1020.3 hPa WNW 3.2 km/h 8 km/h 86% 0.0 mm 0 W/m2
00:54 6.8 °C 4.6 °C 1020.0 hPa NW 9.7 km/h 16.1 km/h 86% 0.0 mm 0 W/m2
01:00 6.8 °C 4.6 °C 1020.0 hPa North 3.2 km/h 4.8 km/h 86% 0.0 mm 0 W/m2
01:05 6.8 °C 4.6 °C 1020.0 hPa NNE 1.4 km/h 8 km/h 86% 0.0 mm 0 W/m2
01:10 6.9 °C 4.7 °C 1020.0 hPa WNW 6.4 km/h 12.9 km/h 86% 0.0 mm 0 W/m2
01:15 6.9 °C 4.7 °C 1019.6 hPa WNW 13 km/h 14.5 km/h 86% 0.0 mm 0 W/m2
01:20 6.9 °C 4.7 °C 1019.6 hPa WNW 7.9 km/h 12.9 km/h 86% 0.0 mm 0 W/m2
01:25 6.9 °C 4.7 °C 1019.6 hPa West 3.2 km/h 8 km/h 86% 0.2 mm 0 W/m2
01:30 6.8 °C 4.6 °C 1019.6 hPa WSW 6.4 km/h 17.7 km/h 86% 0.2 mm 0 W/m2
01:35 6.8 °C 4.6 °C 1019.6 hPa WSW 7.9 km/h 11.3 km/h 86% 0.2 mm 0 W/m2
01:40 6.8 °C 4.8 °C 1019.3 hPa NW 3.2 km/h 19.3 km/h 87% 0.2 mm 0 W/m2
01:45 6.7 °C 4.7 °C 1019.3 hPa SW 1.4 km/h 11.3 km/h 87% 0.5 mm 0 W/m2
01:50 6.7 °C 4.9 °C 1019.0 hPa West 3.2 km/h 19.3 km/h 88% 0.5 mm 0 W/m2
01:55 6.6 °C 4.8 °C 1019.0 hPa NW 6.4 km/h 8 km/h 88% 0.5 mm 0 W/m2
02:00 6.6 °C 4.9 °C 1019.0 hPa NNW 6.4 km/h 16.1 km/h 89% 0.5 mm 0 W/m2
02:05 6.6 °C 4.9 °C 1019.0 hPa NNW 6.4 km/h 12.9 km/h 89% 0.5 mm 0 W/m2
02:10 6.6 °C 4.9 °C 1019.0 hPa West 3.2 km/h 25.7 km/h 89% 1.0 mm 0 W/m2
02:15 6.5 °C 5 °C 1018.6 hPa NW 3.2 km/h 6.4 km/h 90% 1.0 mm 0 W/m2
02:20 6.5 °C 5 °C 1018.6 hPa ENE 4.7 km/h 24.1 km/h 90% 1.0 mm 0 W/m2
02:25 6.5 °C 5 °C 1018.3 hPa WNW 6.4 km/h 9.7 km/h 90% 0.8 mm 0 W/m2
02:30 6.5 °C 5 °C 1018.3 hPa WNW 3.2 km/h 12.9 km/h 90% 1.0 mm 0 W/m2
02:35 6.5 °C 5 °C 1018.3 hPa NNE 9.7 km/h 11.3 km/h 90% 1.0 mm 0 W/m2
02:40 6.5 °C 5 °C 1018.0 hPa WNW 6.4 km/h 11.3 km/h 90% 1.3 mm 0 W/m2
02:45 6.5 °C 5 °C 1018.3 hPa NNW 6.4 km/h 20.9 km/h 90% 1.0 mm 0 W/m2
02:50 6.5 °C 5 °C 1018.0 hPa North 1.4 km/h 6.4 km/h 90% 1.3 mm 0 W/m2
02:55 6.5 °C 5 °C 1018.0 hPa SSE 4.7 km/h 19.3 km/h 90% 1.0 mm 0 W/m2
03:00 6.5 °C 5.1 °C 1017.6 hPa SW 4.7 km/h 9.7 km/h 91% 1.3 mm 0 W/m2
03:05 6.4 °C 5 °C 1017.6 hPa SSW 7.9 km/h 16.1 km/h 91% 1.5 mm 0 W/m2
03:10 6.4 °C 5 °C 1017.6 hPa WNW 6.4 km/h 11.3 km/h 91% 1.3 mm 0 W/m2
03:15 6.4 °C 5 °C 1017.6 hPa West 6.4 km/h 22.5 km/h 91% 1.5 mm 0 W/m2
03:20 6.4 °C 5 °C 1017.6 hPa NNW 7.9 km/h 8 km/h 91% 1.8 mm 0 W/m2
03:25 6.3 °C 4.9 °C 1017.6 hPa West 11.1 km/h 12.9 km/h 91% 2.3 mm 0 W/m2
03:30 6.3 °C 4.9 °C 1017.6 hPa SSW 4.7 km/h 11.3 km/h 91% 2.0 mm 0 W/m2
03:35 6.3 °C 4.9 °C 1017.3 hPa West 11.1 km/h 20.9 km/h 91% 2.3 mm 0 W/m2
03:40 6.3 °C 4.9 °C 1017.3 hPa West 6.4 km/h 12.9 km/h 91% 2.3 mm 0 W/m2
03:45 6.3 °C 4.9 °C 1017.3 hPa NW 19.5 km/h 19.3 km/h 91% 2.5 mm 0 W/m2
03:50 6.2 °C 4.8 °C 1017.3 hPa West 3.2 km/h 19.3 km/h 91% 2.5 mm 0 W/m2
03:55 6.2 °C 4.8 °C 1017.3 hPa WSW 6.4 km/h 9.7 km/h 91% 2.5 mm 0 W/m2
04:00 6.2 °C 4.8 °C 1016.9 hPa West 3.2 km/h 24.1 km/h 91% 2.5 mm 0 W/m2
04:05 6.2 °C 4.8 °C 1016.9 hPa SSW 9.7 km/h 12.9 km/h 91% 2.3 mm 0 W/m2
04:10 6.2 °C 4.8 °C 1016.9 hPa NW 7.9 km/h 51.5 km/h 91% 2.3 mm 0 W/m2
04:15 6.2 °C 4.8 °C 1016.9 hPa WNW 6.4 km/h 16.1 km/h 91% 2.0 mm 0 W/m2
04:20 6.2 °C 4.8 °C 1016.9 hPa WNW 4.7 km/h 8 km/h 91% 1.5 mm 0 W/m2
04:26 6.1 °C 4.7 °C 1016.9 hPa WNW 3.2 km/h 19.3 km/h 91% 1.3 mm 0 W/m2
04:31 6.1 °C 4.7 °C 1016.9 hPa WNW 7.9 km/h 16.1 km/h 91% 1.3 mm 0 W/m2
04:36 6.1 °C 4.7 °C 1017.3 hPa WNW 11.1 km/h 32.2 km/h 91% 1.5 mm 0 W/m2
04:41 6 °C 4.8 °C 1016.9 hPa West 3.2 km/h 20.9 km/h 92% 1.5 mm 0 W/m2
04:46 5.9 °C 4.7 °C 1017.3 hPa West 6.4 km/h 24.1 km/h 92% 1.3 mm 0 W/m2
04:51 5.9 °C 4.7 °C 1017.3 hPa WNW 3.2 km/h 19.3 km/h 92% 1.0 mm 0 W/m2
04:56 6 °C 4.8 °C 1017.3 hPa WNW 13 km/h 19.3 km/h 92% 0.8 mm 0 W/m2
05:01 6 °C 4.6 °C 1017.3 hPa NNW 3.2 km/h 12.9 km/h 91% 0.8 mm 0 W/m2
05:06 6.1 °C 4.7 °C 1017.3 hPa SW 3.2 km/h 9.7 km/h 91% 0.8 mm 0 W/m2
05:11 6.1 °C 4.7 °C 1017.3 hPa West 9.7 km/h 11.3 km/h 91% 0.8 mm 0 W/m2
05:16 6 °C 4.6 °C 1017.3 hPa West 14.3 km/h 16.1 km/h 91% 0.8 mm 0 W/m2
05:21 6 °C 4.6 °C 1017.6 hPa WNW 7.9 km/h 20.9 km/h 91% 0.8 mm 0 W/m2
05:26 6 °C 4.6 °C 1017.6 hPa WNW 7.9 km/h 14.5 km/h 91% 0.8 mm 0 W/m2
05:31 6 °C 4.6 °C 1017.6 hPa West 4.7 km/h 6.4 km/h 91% 0.5 mm 0 W/m2
05:36 5.9 °C 4.5 °C 1017.6 hPa NW 4.7 km/h 14.5 km/h 91% 0.2 mm 0 W/m2
05:41 5.9 °C 4.5 °C 1017.6 hPa WSW 4.7 km/h 12.9 km/h 91% 0.0 mm 0 W/m2
05:46 5.9 °C 4.5 °C 1017.6 hPa WNW 6.4 km/h 14.5 km/h 91% 0.0 mm 0 W/m2
05:51 5.9 °C 4.5 °C 1018.0 hPa NW 7.9 km/h 19.3 km/h 91% 0.0 mm 0 W/m2
05:56 5.9 °C 4.5 °C 1018.0 hPa West 14.3 km/h 20.9 km/h 91% 0.0 mm 0 W/m2
06:01 5.8 °C 4.4 °C 1017.6 hPa West 6.4 km/h 12.9 km/h 91% 0.0 mm 0 W/m2
06:06 5.8 °C 4.4 °C 1018.0 hPa West 4.7 km/h 16.1 km/h 91% 0.0 mm 0 W/m2
06:11 5.7 °C 4.2 °C 1018.0 hPa WSW 14.3 km/h 19.3 km/h 90% 0.2 mm 0 W/m2
06:16 5.7 °C 4.2 °C 1018.0 hPa NW 9.7 km/h 14.5 km/h 90% 0.2 mm 0 W/m2
06:21 5.6 °C 4.1 °C 1018.0 hPa WSW 11.1 km/h 14.5 km/h 90% 0.2 mm 0 W/m2
06:27 5.5 °C 4.1 °C 1018.3 hPa West 13 km/h 24.1 km/h 91% 0.2 mm 0 W/m2
06:32 5.4 °C 3.9 °C 1018.3 hPa WSW 19.5 km/h 19.3 km/h 90% 0.5 mm 0 W/m2
06:37 5.3 °C 3.8 °C 1018.3 hPa WNW 14.3 km/h 17.7 km/h 90% 0.5 mm 0 W/m2
06:42 5.2 °C 3.7 °C 1018.3 hPa NW 11.1 km/h 16.1 km/h 90% 0.5 mm 0 W/m2
06:47 5.2 °C 3.7 °C 1018.3 hPa WNW 14.3 km/h 16.1 km/h 90% 0.5 mm 0 W/m2
06:52 5.2 °C 3.7 °C 1018.3 hPa NW 7.9 km/h 17.7 km/h 90% 0.5 mm 0 W/m2
06:57 5.2 °C 3.9 °C 1018.3 hPa West 6.4 km/h 17.7 km/h 91% 0.5 mm 0 W/m2
07:02 5.2 °C 3.9 °C 1018.3 hPa West 16.3 km/h 19.3 km/h 91% 0.8 mm 0 W/m2
07:07 5.2 °C 3.9 °C 1018.6 hPa West 9.7 km/h 11.3 km/h 91% 0.8 mm 0 W/m2
07:12 5.1 °C 3.8 °C 1018.6 hPa WNW 14.3 km/h 22.5 km/h 91% 0.5 mm 0 W/m2
07:17 5.1 °C 3.8 °C 1018.6 hPa West 4.7 km/h 19.3 km/h 91% 0.5 mm 0 W/m2
07:22 5.1 °C 3.8 °C 1018.6 hPa West 22.5 km/h 22.5 km/h 91% 0.5 mm 0 W/m2
07:27 5.1 °C 3.6 °C 1018.6 hPa WSW 11.1 km/h 16.1 km/h 90% 0.5 mm 0 W/m2
07:32 5.1 °C 3.6 °C 1018.6 hPa WNW 16.3 km/h 20.9 km/h 90% 0.5 mm 0 W/m2
07:37 5.1 °C 3.6 °C 1018.6 hPa NW 13 km/h 17.7 km/h 90% 0.5 mm 0 W/m2
07:42 5 °C 3.3 °C 1019.0 hPa WNW 13 km/h 19.3 km/h 89% 0.5 mm 5 W/m2
07:47 4.9 °C 3.2 °C 1019.0 hPa West 11.1 km/h 14.5 km/h 89% 0.5 mm 5 W/m2
07:53 4.9 °C 3.2 °C 1019.0 hPa WSW 16.3 km/h 27.4 km/h 89% 0.5 mm 9 W/m2
07:58 4.9 °C 3.2 °C 1019.0 hPa NW 11.1 km/h 17.7 km/h 89% 0.5 mm 12 W/m2
08:03 4.9 °C 3.2 °C 1019.3 hPa West 11.1 km/h 29 km/h 89% 0.0 mm 60 W/m2
08:08 4.9 °C 3.4 °C 1019.3 hPa WNW 14.3 km/h 16.1 km/h 90% 0.0 mm 21 W/m2
08:13 4.9 °C 3.4 °C 1019.3 hPa SW 16.3 km/h 29 km/h 90% 0.0 mm 12 W/m2
08:18 4.9 °C 3.4 °C 1019.3 hPa West 6.4 km/h 9.7 km/h 90% 0.0 mm 23 W/m2
08:23 4.9 °C 3.4 °C 1019.6 hPa WNW 7.9 km/h 20.9 km/h 90% 0.0 mm 18 W/m2
08:28 4.9 °C 3.4 °C 1019.6 hPa NW 7.9 km/h 16.1 km/h 90% 0.0 mm 39 W/m2
08:33 4.8 °C 3.1 °C 1020.0 hPa West 13 km/h 32.2 km/h 89% 0.0 mm 30 W/m2
08:38 4.7 °C 3.2 °C 1020.0 hPa WNW 14.3 km/h 25.7 km/h 90% 0.0 mm 26 W/m2
08:43 4.6 °C 3.1 °C 1020.0 hPa WSW 19.5 km/h 27.4 km/h 90% 0.0 mm 47 W/m2
08:48 4.6 °C 3.1 °C 1020.3 hPa WSW 11.1 km/h 22.5 km/h 90% 0.0 mm 98 W/m2
08:53 4.6 °C 3.1 °C 1020.3 hPa WSW 11.1 km/h 24.1 km/h 90% 0.0 mm 86 W/m2
08:58 4.6 °C 3.1 °C 1020.7 hPa WSW 14.3 km/h 19.3 km/h 90% 0.0 mm 63 W/m2
09:03 4.7 °C 3.2 °C 1020.7 hPa WSW 11.1 km/h 19.3 km/h 90% 0.0 mm 56 W/m2
09:08 4.7 °C 3.2 °C 1020.7 hPa WSW 11.1 km/h 12.9 km/h 90% 0.0 mm 42 W/m2
09:13 4.7 °C 3.2 °C 1020.7 hPa West 11.1 km/h 16.1 km/h 90% 0.0 mm 44 W/m2
09:18 4.8 °C 3.3 °C 1021.0 hPa West 11.1 km/h 12.9 km/h 90% 0.0 mm 53 W/m2
09:23 4.9 °C 3.4 °C 1021.0 hPa West 11.1 km/h 24.1 km/h 90% 0.0 mm 76 W/m2
09:28 5.1 °C 3.4 °C 1021.0 hPa West 17.7 km/h 22.5 km/h 89% 0.0 mm 197 W/m2
09:33 5.2 °C 3.5 °C 1021.0 hPa West 11.1 km/h 17.7 km/h 89% 0.0 mm 267 W/m2
09:38 5.3 °C 3.5 °C 1021.3 hPa WSW 24.1 km/h 24.1 km/h 88% 0.0 mm 127 W/m2
09:43 5.4 °C 3.4 °C 1021.3 hPa West 19.5 km/h 20.9 km/h 87% 0.0 mm 304 W/m2
09:48 5.4 °C 3.2 °C 1021.3 hPa WSW 6.4 km/h 17.7 km/h 86% 0.0 mm 315 W/m2
09:53 5.6 °C 3.4 °C 1021.3 hPa WSW 13 km/h 17.7 km/h 86% 0.2 mm 318 W/m2
09:58 5.7 °C 3.5 °C 1021.3 hPa WNW 14.3 km/h 17.7 km/h 86% 0.2 mm 237 W/m2
10:03 5.8 °C 3.5 °C 1021.7 hPa West 16.3 km/h 16.1 km/h 85% 0.2 mm 276 W/m2
10:08 5.8 °C 3.5 °C 1021.7 hPa West 13 km/h 14.5 km/h 85% 0.2 mm 139 W/m2
10:13 5.8 °C 3.3 °C 1021.7 hPa WSW 11.1 km/h 27.4 km/h 84% 0.2 mm 251 W/m2
10:18 5.8 °C 3.3 °C 1022.0 hPa West 13 km/h 20.9 km/h 84% 0.2 mm 345 W/m2
10:23 5.9 °C 3.4 °C 1022.0 hPa WNW 13 km/h 27.4 km/h 84% 0.2 mm 366 W/m2
10:28 6 °C 3.3 °C 1022.0 hPa West 16.3 km/h 20.9 km/h 83% 0.2 mm 336 W/m2
10:33 6 °C 3.2 °C 1022.0 hPa West 14.3 km/h 14.5 km/h 82% 0.2 mm 322 W/m2
10:38 6 °C 2.8 °C 1022.0 hPa NW 14.3 km/h 29 km/h 80% 0.2 mm 257 W/m2
10:43 6 °C 2.8 °C 1022.0 hPa West 20.9 km/h 22.5 km/h 80% 0.2 mm 163 W/m2
10:48 6 °C 2.8 °C 1022.4 hPa West 13 km/h 22.5 km/h 80% 0.2 mm 186 W/m2
10:53 6.2 °C 3.2 °C 1022.4 hPa NW 11.1 km/h 25.7 km/h 81% 0.0 mm 214 W/m2
10:58 6.3 °C 2.7 °C 1022.4 hPa WSW 17.7 km/h 30.6 km/h 78% 0.0 mm 306 W/m2
11:03 6.3 °C 2.6 °C 1022.4 hPa NW 9.7 km/h 19.3 km/h 77% 0.0 mm 111 W/m2
11:08 6.3 °C 2.9 °C 1022.4 hPa West 19.5 km/h 19.3 km/h 79% 0.0 mm 380 W/m2
11:13 6.2 °C 2.8 °C 1022.4 hPa WSW 11.1 km/h 14.5 km/h 79% 0.0 mm 294 W/m2
11:18 6.1 °C 2.7 °C 1022.4 hPa West 6.4 km/h 20.9 km/h 79% 0.0 mm 338 W/m2
11:23 6.2 °C 2.8 °C 1022.7 hPa West 13 km/h 25.7 km/h 79% 0.0 mm 269 W/m2
11:28 6.1 °C 2.9 °C 1022.4 hPa NW 19.5 km/h 19.3 km/h 80% 0.0 mm 206 W/m2
11:33 6.2 °C 3.2 °C 1022.4 hPa West 9.7 km/h 12.9 km/h 81% 0.0 mm 160 W/m2
11:38 6.3 °C 3.1 °C 1022.4 hPa West 11.1 km/h 14.5 km/h 80% 0.0 mm 179 W/m2
11:43 6.5 °C 2.9 °C 1022.4 hPa WNW 11.1 km/h 19.3 km/h 78% 0.0 mm 236 W/m2
11:48 6.5 °C 2.8 °C 1022.7 hPa SW 20.9 km/h 20.9 km/h 77% 0.0 mm 67 W/m2
11:53 6.3 °C 2.6 °C 1022.7 hPa WNW 11.1 km/h 12.9 km/h 77% 0.0 mm 95 W/m2
11:58 6.2 °C 2.3 °C 1022.7 hPa WNW 11.1 km/h 17.7 km/h 76% 0.0 mm 128 W/m2
12:03 6.3 °C 2 °C 1022.7 hPa WSW 14.3 km/h 20.9 km/h 74% 0.0 mm 113 W/m2
12:08 6.3 °C 2 °C 1022.7 hPa West 14.3 km/h 19.3 km/h 74% 0.0 mm 148 W/m2
12:13 6.1 °C 1.4 °C 1023.0 hPa WSW 11.1 km/h 19.3 km/h 72% 0.0 mm 141 W/m2
12:18 5.9 °C 1.2 °C 1023.0 hPa WNW 6.4 km/h 22.5 km/h 72% 0.0 mm 62 W/m2
12:23 6.1 °C 1.8 °C 1023.4 hPa West 27.4 km/h 27.4 km/h 74% 0.0 mm 427 W/m2
12:28 6.2 °C 1.5 °C 1023.4 hPa West 19.5 km/h 27.4 km/h 72% 0.0 mm 308 W/m2
12:33 6.3 °C 1.2 °C 1023.0 hPa West 9.7 km/h 20.9 km/h 70% 0.0 mm 253 W/m2
12:38 6.6 °C 1.5 °C 1023.0 hPa WNW 19.5 km/h 20.9 km/h 70% 0.0 mm 156 W/m2
12:43 6.6 °C 1.7 °C 1022.7 hPa SW 14.3 km/h 16.1 km/h 71% 0.0 mm 253 W/m2
12:48 6.7 °C 1.8 °C 1023.0 hPa West 11.1 km/h 20.9 km/h 71% 0.0 mm 190 W/m2
12:53 6.7 °C 2 °C 1023.0 hPa West 19.5 km/h 25.7 km/h 72% 0.0 mm 232 W/m2
12:59 6.7 °C 2 °C 1023.0 hPa West 13 km/h 19.3 km/h 72% 0.0 mm 301 W/m2
13:04 6.7 °C 1.6 °C 1023.0 hPa NNW 6.4 km/h 20.9 km/h 70% 0.0 mm 174 W/m2
13:09 6.7 °C 1.8 °C 1023.0 hPa WSW 4.7 km/h 17.7 km/h 71% 0.0 mm 107 W/m2
13:14 6.6 °C 1.7 °C 1023.0 hPa West 11.1 km/h 17.7 km/h 71% 0.0 mm 88 W/m2
13:19 6.6 °C 1.9 °C 1023.0 hPa NW 11.1 km/h 12.9 km/h 72% 0.0 mm 200 W/m2
13:24 6.6 °C 1.7 °C 1023.0 hPa NNW 7.9 km/h 22.5 km/h 71% 0.0 mm 125 W/m2
13:29 6.8 °C 1.7 °C 1023.0 hPa West 6.4 km/h 19.3 km/h 70% 0.0 mm 134 W/m2
13:34 7 °C 1.3 °C 1023.0 hPa WNW 11.1 km/h 19.3 km/h 67% 0.0 mm 220 W/m2
13:39 7.2 °C 1.5 °C 1023.0 hPa WNW 11.1 km/h 16.1 km/h 67% 0.0 mm 165 W/m2
13:44 7.3 °C 1.4 °C 1023.0 hPa WSW 6.4 km/h 20.9 km/h 66% 0.0 mm 206 W/m2
13:49 7.3 °C 1.6 °C 1023.0 hPa WSW 13 km/h 12.9 km/h 67% 0.0 mm 250 W/m2
13:54 7.4 °C 1.9 °C 1023.0 hPa West 14.3 km/h 14.5 km/h 68% 0.0 mm 206 W/m2
13:59 7.6 °C 2.1 °C 1023.0 hPa WSW 11.1 km/h 14.5 km/h 68% 0.0 mm 213 W/m2
14:04 7.4 °C 1.3 °C 1023.0 hPa West 9.7 km/h 29 km/h 65% 0.0 mm 162 W/m2
14:09 7.4 °C 1.5 °C 1023.4 hPa West 11.1 km/h 19.3 km/h 66% 0.0 mm 281 W/m2
14:14 7.4 °C 1.5 °C 1023.4 hPa NW 11.1 km/h 19.3 km/h 66% 0.0 mm 213 W/m2
14:19 7.4 °C 1.5 °C 1023.4 hPa NW 6.4 km/h 8 km/h 66% 0.0 mm 165 W/m2
14:24 7.5 °C 1.6 °C 1023.4 hPa West 9.7 km/h 17.7 km/h 66% 0.0 mm 148 W/m2
14:29 7.4 °C 1.5 °C 1023.4 hPa West 14.3 km/h 16.1 km/h 66% 0.0 mm 202 W/m2
14:34 7.4 °C 1.7 °C 1023.4 hPa WNW 11.1 km/h 25.7 km/h 67% 0.0 mm 234 W/m2
14:39 7.7 °C 2 °C 1023.4 hPa West 13 km/h 19.3 km/h 67% 0.0 mm 188 W/m2
14:44 7.7 °C 1.3 °C 1023.4 hPa West 17.7 km/h 25.7 km/h 64% 0.0 mm 137 W/m2
14:49 7.4 °C 1 °C 1023.4 hPa NW 17.7 km/h 19.3 km/h 64% 0.0 mm 139 W/m2
14:54 7.3 °C 1.2 °C 1023.4 hPa WSW 13 km/h 19.3 km/h 65% 0.0 mm 127 W/m2
14:59 7.3 °C 1.6 °C 1023.4 hPa West 6.4 km/h 14.5 km/h 67% 0.0 mm 153 W/m2
15:04 7.4 °C 1.5 °C 1023.4 hPa West 11.1 km/h 14.5 km/h 66% 0.0 mm 171 W/m2
15:09 7.5 °C 1.6 °C 1023.4 hPa WSW 9.7 km/h 17.7 km/h 66% 0.0 mm 188 W/m2
15:14 7.6 °C 1.7 °C 1023.4 hPa WSW 19.5 km/h 25.7 km/h 66% 0.0 mm 179 W/m2
15:19 7.6 °C 1.2 °C 1023.4 hPa NNW 6.4 km/h 12.9 km/h 64% 0.0 mm 158 W/m2
15:24 7.6 °C 1.2 °C 1023.4 hPa WNW 9.7 km/h 20.9 km/h 64% 0.0 mm 162 W/m2
15:29 7.6 °C 1.2 °C 1023.7 hPa WNW 13 km/h 19.3 km/h 64% 0.0 mm 151 W/m2
15:34 7.6 °C 1.4 °C 1023.7 hPa West 4.7 km/h 9.7 km/h 65% 0.0 mm 156 W/m2
15:39 7.6 °C 1.2 °C 1023.7 hPa NW 7.9 km/h 16.1 km/h 64% 0.0 mm 151 W/m2
15:44 7.6 °C 0.8 °C 1023.7 hPa West 14.3 km/h 16.1 km/h 62% 0.0 mm 137 W/m2
15:49 7.6 °C 0.6 °C 1023.7 hPa West 13 km/h 19.3 km/h 61% 0.0 mm 130 W/m2
15:54 7.5 °C 0.5 °C 1023.7 hPa West 9.7 km/h 14.5 km/h 61% 0.0 mm 120 W/m2
15:59 7.4 °C 0.4 °C 1023.7 hPa West 13 km/h 17.7 km/h 61% 0.0 mm 121 W/m2
16:04 7.4 °C 0.6 °C 1023.7 hPa WNW 7.9 km/h 22.5 km/h 62% 0.0 mm 102 W/m2
16:09 7.3 °C 0.7 °C 1023.7 hPa SSW 14.3 km/h 22.5 km/h 63% 0.0 mm 95 W/m2
16:14 7.3 °C 0.9 °C 1023.7 hPa WNW 4.7 km/h 12.9 km/h 64% 0.0 mm 88 W/m2
16:19 7.3 °C 1.2 °C 1023.7 hPa NW 22.5 km/h 22.5 km/h 65% 0.0 mm 95 W/m2
16:24 7.3 °C 1.2 °C 1023.7 hPa West 13 km/h 12.9 km/h 65% 0.0 mm 97 W/m2
16:29 7.2 °C 1.1 °C 1023.7 hPa WNW 6.4 km/h 22.5 km/h 65% 0.0 mm 79 W/m2
16:34 7.2 °C 1.3 °C 1023.7 hPa WSW 11.1 km/h 12.9 km/h 66% 0.0 mm 67 W/m2
16:39 7.2 °C 1.3 °C 1023.7 hPa WNW 13 km/h 14.5 km/h 66% 0.0 mm 62 W/m2
16:44 7.2 °C 1.5 °C 1023.7 hPa WSW 11.1 km/h 11.3 km/h 67% 0.0 mm 58 W/m2
16:49 7.2 °C 1.3 °C 1023.7 hPa West 20.9 km/h 20.9 km/h 66% 0.0 mm 60 W/m2
16:54 7.1 °C 1.2 °C 1023.7 hPa West 20.9 km/h 20.9 km/h 66% 0.0 mm 60 W/m2
16:59 7.1 °C 1.2 °C 1023.7 hPa WNW 11.1 km/h 20.9 km/h 66% 0.0 mm 54 W/m2
17:04 7.1 °C 1.2 °C 1023.7 hPa WNW 4.7 km/h 8 km/h 66% 0.0 mm 53 W/m2
17:09 7.1 °C 1.4 °C 1023.7 hPa NW 3.2 km/h 6.4 km/h 67% 0.0 mm 44 W/m2
17:14 7 °C 1.3 °C 1023.7 hPa WNW 3.2 km/h 14.5 km/h 67% 0.0 mm 42 W/m2
17:19 7 °C 1.3 °C 1023.7 hPa West 4.7 km/h 11.3 km/h 67% 0.0 mm 44 W/m2
17:24 6.9 °C 1.2 °C 1023.7 hPa West 4.7 km/h 14.5 km/h 67% 0.0 mm 46 W/m2
17:30 6.9 °C 1.2 °C 1023.7 hPa WSW 4.7 km/h 9.7 km/h 67% 0.0 mm 37 W/m2
17:35 6.8 °C 1.3 °C 1023.7 hPa WNW 4.7 km/h 11.3 km/h 68% 0.0 mm 23 W/m2
17:40 6.8 °C 1.3 °C 1023.7 hPa West 4.7 km/h 4.8 km/h 68% 0.0 mm 14 W/m2
17:45 6.7 °C 1.4 °C 1023.7 hPa NW 1.4 km/h 6.4 km/h 69% 0.0 mm 12 W/m2
17:50 6.6 °C 1.3 °C 1024.0 hPa West 16.3 km/h 16.1 km/h 69% 0.0 mm 11 W/m2
17:55 6.5 °C 1.2 °C 1024.0 hPa West 11.1 km/h 14.5 km/h 69% 0.0 mm 7 W/m2
18:00 6.4 °C 1.1 °C 1024.0 hPa West 4.7 km/h 11.3 km/h 69% 0.0 mm 0 W/m2
18:05 6.3 °C 1 °C 1024.0 hPa WNW 1.4 km/h 6.4 km/h 69% 0.0 mm 0 W/m2
18:10 6.3 °C 1 °C 1024.0 hPa WNW 1.4 km/h 3.2 km/h 69% 0.0 mm 0 W/m2
18:15 6.2 °C 1.1 °C 1024.0 hPa WNW 4.7 km/h 4.8 km/h 70% 0.0 mm 0 W/m2
18:20 6.2 °C 1.1 °C 1024.0 hPa West 1.4 km/h 4.8 km/h 70% 0.0 mm 0 W/m2
18:25 6.1 °C 1.2 °C 1024.0 hPa Calm   3.2 km/h 71% 0.0 mm 0 W/m2
18:30 6.1 °C 1.2 °C 1024.0 hPa NW 3.2 km/h 3.2 km/h 71% 0.0 mm 0 W/m2
18:35 5.9 °C 1.2 °C 1024.0 hPa NW 1.4 km/h 1.6 km/h 72% 0.0 mm 0 W/m2
18:40 5.8 °C 1.3 °C 1024.0 hPa Calm     73% 0.0 mm 0 W/m2
18:45 5.6 °C 1.3 °C 1024.0 hPa NW 1.4 km/h 1.6 km/h 74% 0.0 mm 0 W/m2
18:50 5.4 °C 1.3 °C 1024.0 hPa Calm   1.6 km/h 75% 0.0 mm 0 W/m2
18:55 5.2 °C 1.3 °C 1024.0 hPa Calm   1.6 km/h 76% 0.0 mm 0 W/m2
19:00 5.1 °C 1.4 °C 1024.0 hPa Calm   3.2 km/h 77% 0.0 mm 0 W/m2
19:05 5 °C 1.3 °C 1024.0 hPa Calm     77% 0.0 mm 0 W/m2
19:10 4.9 °C 1.4 °C 1024.0 hPa Calm     78% 0.0 mm 0 W/m2
19:15 4.9 °C 1.4 °C 1024.0 hPa Calm   1.6 km/h 78% 0.0 mm 0 W/m2
19:20 4.9 °C 1.6 °C 1024.0 hPa NNE 1.4 km/h 3.2 km/h 79% 0.0 mm 0 W/m2
19:25 4.9 °C 1.6 °C 1024.0 hPa NNE 3.2 km/h 3.2 km/h 79% 0.0 mm 0 W/m2
19:30 4.9 °C 1.6 °C 1024.0 hPa NE 1.4 km/h 1.6 km/h 79% 0.0 mm 0 W/m2
19:36 5.2 °C 1.7 °C 1024.0 hPa NE 1.4 km/h 4.8 km/h 78% 0.0 mm 0 W/m2
19:41 5.3 °C 1.8 °C 1024.0 hPa NW 3.2 km/h 6.4 km/h 78% 0.0 mm 0 W/m2
19:46 5.6 °C 1.9 °C 1024.4 hPa West 1.4 km/h 3.2 km/h 77% 0.0 mm 0 W/m2
19:51 5.7 °C 2 °C 1024.0 hPa NNW 1.4 km/h 6.4 km/h 77% 0.0 mm 0 W/m2
19:56 5.7 °C 2.2 °C 1024.0 hPa NNE 3.2 km/h 3.2 km/h 78% 0.0 mm 0 W/m2
20:01 5.7 °C 2.2 °C 1024.0 hPa Calm   3.2 km/h 78% 0.0 mm 0 W/m2
20:06 5.8 °C 2.3 °C 1024.0 hPa SW 3.2 km/h 14.5 km/h 78% 0.0 mm 0 W/m2
20:11 5.8 °C 2.3 °C 1024.0 hPa Calm   1.6 km/h 78% 0.0 mm 0 W/m2
20:16 5.8 °C 2.4 °C 1024.0 hPa ENE 8 km/h 8 km/h 79% 0.0 mm 0 W/m2
20:21 5.8 °C 2.6 °C 1024.0 hPa ESE 1.4 km/h 3.2 km/h 80% 0.0 mm 0 W/m2
20:26 5.8 °C 2.6 °C 1024.0 hPa Calm   1.6 km/h 80% 0.0 mm 0 W/m2
20:31 5.8 °C 2.6 °C 1024.0 hPa SSE 1.4 km/h 1.6 km/h 80% 0.0 mm 0 W/m2
20:36 5.8 °C 2.8 °C 1024.0 hPa Calm     81% 0.0 mm 0 W/m2
20:41 5.7 °C 2.7 °C 1024.0 hPa East 1.4 km/h 3.2 km/h 81% 0.0 mm 0 W/m2
20:46 5.6 °C 2.8 °C 1024.0 hPa ESE 3.2 km/h 3.2 km/h 82% 0.0 mm 0 W/m2
20:51 5.5 °C 2.7 °C 1024.0 hPa Calm     82% 0.0 mm 0 W/m2
20:56 5.4 °C 2.7 °C 1024.0 hPa Calm   1.6 km/h 83% 0.0 mm 0 W/m2
21:01 5.3 °C 2.6 °C 1024.0 hPa NE 1.4 km/h 3.2 km/h 83% 0.0 mm 0 W/m2
21:06 5.3 °C 2.6 °C 1024.0 hPa North 1.4 km/h 3.2 km/h 83% 0.0 mm 0 W/m2
21:11 5.4 °C 2.9 °C 1024.0 hPa ENE 4.7 km/h 4.8 km/h 84% 0.0 mm 0 W/m2
21:16 5.4 °C 2.9 °C 1024.0 hPa Calm   3.2 km/h 84% 0.0 mm 0 W/m2
21:21 5.4 °C 2.9 °C 1024.0 hPa Calm   3.2 km/h 84% 0.0 mm 0 W/m2
21:26 5.4 °C 2.9 °C 1024.0 hPa SW 1.4 km/h 3.2 km/h 84% 0.0 mm 0 W/m2
21:31 5.6 °C 3.1 °C 1024.0 hPa NNW 1.4 km/h 3.2 km/h 84% 0.0 mm 0 W/m2
21:36 5.7 °C 3 °C 1023.7 hPa Calm   3.2 km/h 83% 0.0 mm 0 W/m2
21:42 5.8 °C 3.1 °C 1024.0 hPa NW 3.2 km/h 4.8 km/h 83% 0.0 mm 0 W/m2
21:47 5.8 °C 3.1 °C 1023.7 hPa WSW 4.7 km/h 11.3 km/h 83% 0.0 mm 0 W/m2
21:52 5.8 °C 3.1 °C 1023.7 hPa Calm   1.6 km/h 83% 0.0 mm 0 W/m2
21:57 5.8 °C 3.1 °C 1023.7 hPa WNW 3.2 km/h 4.8 km/h 83% 0.0 mm 0 W/m2
22:02 5.8 °C 3.3 °C 1023.7 hPa NNE 1.4 km/h 3.2 km/h 84% 0.0 mm 0 W/m2
22:07 5.8 °C 3.3 °C 1023.7 hPa Calm   1.6 km/h 84% 0.0 mm 0 W/m2
22:12 5.8 °C 3.3 °C 1023.7 hPa SW 1.4 km/h 3.2 km/h 84% 0.0 mm 0 W/m2
22:17 5.9 °C 3.4 °C 1023.4 hPa Calm   6.4 km/h 84% 0.0 mm 0 W/m2
22:22 5.9 °C 3.4 °C 1023.7 hPa WNW 4.7 km/h 4.8 km/h 84% 0.0 mm 0 W/m2
22:27 5.9 °C 3.4 °C 1023.4 hPa North 1.4 km/h 1.6 km/h 84% 0.0 mm 0 W/m2
22:32 6 °C 3.5 °C 1023.4 hPa East 4.7 km/h 6.4 km/h 84% 0.0 mm 0 W/m2
22:37 6.1 °C 3.6 °C 1023.4 hPa NW 4.7 km/h 12.9 km/h 84% 0.0 mm 0 W/m2
22:42 6.1 °C 3.4 °C 1023.4 hPa WNW 3.2 km/h 11.3 km/h 83% 0.0 mm 0 W/m2
22:47 6.1 °C 3.4 °C 1023.4 hPa North 1.4 km/h 12.9 km/h 83% 0.0 mm 0 W/m2
22:52 6.1 °C 3.6 °C 1023.4 hPa WNW 3.2 km/h 11.3 km/h 84% 0.0 mm 0 W/m2
22:57 6.1 °C 3.6 °C 1023.4 hPa NNE 1.4 km/h 12.9 km/h 84% 0.0 mm 0 W/m2
23:02 6.1 °C 3.6 °C 1023.4 hPa WSW 1.4 km/h 6.4 km/h 84% 0.0 mm 0 W/m2
23:07 6.1 °C 3.8 °C 1023.4 hPa NE 1.4 km/h 12.9 km/h 85% 0.0 mm 0 W/m2
23:12 6 °C 3.8 °C 1023.4 hPa NW 3.2 km/h 4.8 km/h 86% 0.0 mm 0 W/m2
23:18 5.9 °C 3.7 °C 1023.4 hPa Calm   8 km/h 86% 0.2 mm 0 W/m2
23:23 5.8 °C 3.8 °C 1023.4 hPa North 1.4 km/h 3.2 km/h 87% 0.2 mm 0 W/m2
23:28 5.8 °C 3.8 °C 1023.4 hPa Calm   3.2 km/h 87% 0.2 mm 0 W/m2
23:33 5.7 °C 3.9 °C 1023.4 hPa West 1.4 km/h 6.4 km/h 88% 0.2 mm 0 W/m2
23:38 5.7 °C 3.9 °C 1023.4 hPa Calm   3.2 km/h 88% 0.5 mm 0 W/m2
23:43 5.6 °C 3.9 °C 1023.4 hPa ESE 1.4 km/h 6.4 km/h 89% 0.5 mm 0 W/m2
23:48 5.5 °C 3.8 °C 1023.4 hPa NE 1.4 km/h 1.6 km/h 89% 0.5 mm 0 W/m2
23:53 5.5 °C 4 °C 1023.4 hPa ESE 1.4 km/h 3.2 km/h 90% 0.5 mm 0 W/m2
23:58 5.4 °C 3.9 °C 1023.4 hPa Calm   4.8 km/h 90% 0.5 mm 0 W/m2
Juneau County Weather
Compliments of Weather Underground - 4 mb